Time;durP1;ratioP1;P1;durP2;ratioP2;P2;SDS_P1;SDS_P2;PMS_P1;PMS_P2;Temp;Humidity;BMP_temperature;BMP_pressure;BME280_temperature;BME280_humidity;BME280_pressure;Samples;Min_cycle;Max_cycle;Signal;HPM_P1;HPM_P2
2021/05/23 00:02:10;;;;;;;17.95;11.60;;;;;;;5.17;100.00;100497.00;2583684;55;20645;-73
2021/05/23 00:04:38;;;;;;;19.40;12.05;;;;;;;5.15;100.00;100499.72;2583836;55;20121;-73
2021/05/23 00:07:07;;;;;;;18.77;11.65;;;;;;;5.10;100.00;100491.22;2583772;55;20102;-73
2021/05/23 00:09:35;;;;;;;20.60;13.62;;;;;;;5.13;100.00;100497.19;2583761;55;20131;-73
2021/05/23 00:12:04;;;;;;;16.23;11.98;;;;;;;5.09;100.00;100493.00;2583785;55;20121;-73
2021/05/23 00:14:31;;;;;;;17.62;12.70;;;;;;;5.03;100.00;100490.72;2583652;55;20120;-73
2021/05/23 00:16:59;;;;;;;19.90;13.60;;;;;;;5.03;100.00;100485.41;2583703;55;20202;-73
2021/05/23 00:19:27;;;;;;;21.02;13.20;;;;;;;5.03;100.00;100485.41;2583775;55;20105;-73
2021/05/23 00:21:54;;;;;;;22.00;13.18;;;;;;;5.01;100.00;100482.84;2583722;55;20124;-74
2021/05/23 00:24:23;;;;;;;19.58;11.98;;;;;;;5.01;100.00;100487.28;2583853;55;20491;-74
2021/05/23 00:26:51;;;;;;;15.98;11.45;;;;;;;4.98;100.00;100482.16;2583618;55;20101;-73
2021/05/23 00:29:20;;;;;;;21.40;12.73;;;;;;;4.98;100.00;100477.75;2583743;55;20618;-73
2021/05/23 00:31:48;;;;;;;17.62;11.38;;;;;;;5.00;100.00;100475.00;2583732;55;20123;-73
2021/05/23 00:34:16;;;;;;;15.32;11.98;;;;;;;4.97;100.00;100480.47;2578651;55;20104;-74
2021/05/23 00:36:43;;;;;;;18.62;12.20;;;;;;;4.94;100.00;100475.34;2583819;55;20143;-73
2021/05/23 00:39:10;;;;;;;20.05;14.20;;;;;;;4.88;100.00;100482.66;2583670;55;20132;-73
2021/05/23 00:41:38;;;;;;;15.52;11.77;;;;;;;4.83;100.00;100479.44;2583618;55;20123;-73
2021/05/23 00:44:06;;;;;;;17.27;11.98;;;;;;;4.80;100.00;100476.94;2583495;55;20163;-73
2021/05/23 00:46:34;;;;;;;17.65;13.50;;;;;;;4.80;100.00;100479.59;2583608;55;20120;-74
2021/05/23 00:49:02;;;;;;;15.35;11.65;;;;;;;4.80;100.00;100468.19;2583545;55;20113;-73
2021/05/23 00:51:29;;;;;;;18.85;12.18;;;;;;;4.80;100.00;100469.00;2583746;55;20127;-73
2021/05/23 00:53:58;;;;;;;16.33;12.37;;;;;;;4.79;100.00;100471.75;2583560;55;20119;-73
2021/05/23 00:56:26;;;;;;;15.98;12.37;;;;;;;4.78;100.00;100470.06;2583578;55;20559;-73
2021/05/23 00:58:53;;;;;;;17.65;12.63;;;;;;;4.74;100.00;100469.38;2583603;55;20116;-73
2021/05/23 01:02:04;;;;;;;16.77;10.82;;;;;;;4.84;100.00;100469.69;2583318;55;20143;-73
2021/05/23 01:04:33;;;;;;;15.18;11.98;;;;;;;4.72;100.00;100479.19;2583742;55;20671;-73
2021/05/23 01:07:01;;;;;;;16.67;11.82;;;;;;;4.68;100.00;100477.63;2583572;55;20623;-73
2021/05/23 01:09:28;;;;;;;18.83;14.32;;;;;;;4.64;100.00;100479.56;2583552;55;20139;-73
2021/05/23 01:12:26;;;;;;;52.05;24.95;;;;;;;4.74;100.00;100480.78;2583619;55;20105;-73
2021/05/23 01:14:58;;;;;;;37.83;19.70;;;;;;;4.71;100.00;100478.31;2583517;55;20139;-73
2021/05/23 01:17:39;;;;;;;31.23;18.08;;;;;;;4.76;100.00;100477.19;2583629;55;20101;-73
2021/05/23 01:20:17;;;;;;;37.03;18.73;;;;;;;4.73;100.00;100483.53;2583532;55;20132;-74
2021/05/23 01:22:53;;;;;;;38.97;19.67;;;;;;;4.71;100.00;100480.94;2583586;55;20135;-74
2021/05/23 01:25:25;;;;;;;48.85;21.35;;;;;;;4.72;100.00;100487.09;2583534;55;20121;-73
2021/05/23 01:27:53;;;;;;;42.22;21.50;;;;;;;4.68;100.00;100483.78;2583415;55;20115;-73
2021/05/23 01:30:26;;;;;;;60.95;25.73;;;;;;;4.73;100.00;100488.81;2583450;55;20502;-73
2021/05/23 01:32:58;;;;;;;51.08;23.90;;;;;;;4.78;100.00;100492.03;2583422;55;20109;-73
2021/05/23 01:35:32;;;;;;;38.72;18.75;;;;;;;4.83;100.00;100490.03;2583553;55;20101;-73
2021/05/23 01:38:00;;;;;;;29.60;17.77;;;;;;;4.92;100.00;100490.44;2583584;55;20109;-74
2021/05/23 01:40:32;;;;;;;27.52;16.48;;;;;;;5.17;100.00;100478.50;2578366;55;20127;-74
2021/05/23 01:43:00;;;;;;;30.02;16.58;;;;;;;5.33;100.00;100489.06;2583548;55;20235;-74
2021/05/23 01:45:29;;;;;;;29.83;17.62;;;;;;;5.54;100.00;100473.75;2583472;55;20117;-74
2021/05/23 01:47:57;;;;;;;33.28;18.02;;;;;;;5.66;100.00;100475.69;2583567;55;20105;-74
2021/05/23 01:50:25;;;;;;;33.08;19.30;;;;;;;5.71;100.00;100470.97;2583451;55;20124;-73
2021/05/23 01:52:54;;;;;;;29.00;17.40;;;;;;;5.78;100.00;100471.47;2583674;55;20117;-74
2021/05/23 01:55:23;;;;;;;26.52;16.37;;;;;;;5.88;100.00;100474.41;2583475;55;20654;-74
2021/05/23 01:57:52;;;;;;;21.80;16.12;;;;;;;5.99;100.00;100476.44;2583314;55;20109;-74
2021/05/23 02:00:22;;;;;;;23.12;13.68;;;;;;;6.06;100.00;100469.00;2583560;55;20115;-73
2021/05/23 02:02:49;;;;;;;25.85;15.45;;;;;;;6.27;100.00;100472.16;2583289;55;20658;-74
2021/05/23 02:05:17;;;;;;;20.05;13.43;;;;;;;6.64;100.00;100463.72;2583362;55;20492;-73
2021/05/23 02:07:45;;;;;;;21.27;13.45;;;;;;;7.25;100.00;100471.34;2583354;55;20113;-73
2021/05/23 02:10:16;;;;;;;19.83;12.80;;;;;;;7.83;99.20;100468.44;2583394;55;20512;-73
2021/05/23 02:12:45;;;;;;;19.10;13.60;;;;;;;8.19;96.87;100452.72;2583915;55;20491;-73
2021/05/23 02:15:15;;;;;;;15.65;11.98;;;;;;;8.31;97.92;100458.97;2584060;55;20106;-73
2021/05/23 02:17:45;;;;;;;17.02;12.15;;;;;;;8.17;98.54;100459.97;2584034;55;20670;-73
2021/05/23 02:20:16;;;;;;;16.55;12.93;;;;;;;7.84;99.68;100454.19;2584156;55;20124;-73
2021/05/23 02:22:45;;;;;;;21.15;13.77;;;;;;;7.55;100.00;100457.00;2584152;55;20129;-73
2021/05/23 02:25:15;;;;;;;17.95;12.80;;;;;;;7.35;100.00;100453.87;2584125;55;20105;-73
2021/05/23 02:27:44;;;;;;;20.42;14.05;;;;;;;7.21;100.00;100446.81;2584059;55;20133;-73
2021/05/23 02:30:15;;;;;;;17.40;13.77;;;;;;;7.15;100.00;100446.38;2584253;55;20120;-73
2021/05/23 02:32:43;;;;;;;19.67;14.30;;;;;;;7.16;100.00;100454.22;2584048;55;20133;-73
2021/05/23 02:35:12;;;;;;;21.75;14.85;;;;;;;7.14;100.00;100463.25;2583970;55;20177;-73
2021/05/23 02:37:41;;;;;;;20.42;14.15;;;;;;;7.08;100.00;100451.22;2584023;55;20131;-73
2021/05/23 02:40:11;;;;;;;21.85;14.77;;;;;;;7.04;100.00;100439.97;2584086;55;20109;-73
2021/05/23 02:42:39;;;;;;;19.77;14.13;;;;;;;7.05;100.00;100441.66;2584025;55;20111;-73
2021/05/23 02:45:09;;;;;;;18.25;13.82;;;;;;;7.13;100.00;100441.16;2584034;55;20607;-73
2021/05/23 02:47:39;;;;;;;19.45;14.70;;;;;;;7.15;100.00;100446.38;2584061;55;20136;-73
2021/05/23 02:50:09;;;;;;;20.75;14.90;;;;;;;7.13;100.00;100442.97;2584181;55;20117;-73
2021/05/23 02:52:37;;;;;;;23.65;15.75;;;;;;;7.16;100.00;100456.03;2584120;55;20131;-73
2021/05/23 02:55:06;;;;;;;27.13;16.83;;;;;;;7.22;100.00;100447.69;2584170;55;20128;-73
2021/05/23 02:57:33;;;;;;;27.27;17.83;;;;;;;7.30;100.00;100437.37;2584158;55;20105;-73
2021/05/23 03:00:01;;;;;;;28.92;17.55;;;;;;;7.33;100.00;100439.00;2583900;55;20149;-73
2021/05/23 03:02:29;;;;;;;25.75;17.10;;;;;;;7.38;100.00;100442.22;2583969;55;20649;-73
2021/05/23 03:04:58;;;;;;;24.85;17.33;;;;;;;7.45;100.00;100447.97;2584043;55;20499;-73
2021/05/23 03:07:25;;;;;;;27.73;17.48;;;;;;;7.49;100.00;100436.16;2583971;55;20124;-73
2021/05/23 03:09:53;;;;;;;22.13;15.90;;;;;;;7.59;100.00;100431.94;2579105;55;20594;-73
2021/05/23 03:12:20;;;;;;;18.83;13.80;;;;;;;7.69;100.00;100439.28;2583984;55;20626;-73
2021/05/23 03:14:48;;;;;;;18.50;12.63;;;;;;;7.76;100.00;100432.63;2583912;55;20109;-73
2021/05/23 03:17:15;;;;;;;16.85;13.10;;;;;;;7.80;100.00;100431.44;2583927;55;20158;-73
2021/05/23 03:19:48;;;;;;;14.87;12.05;;;;;;;7.86;100.00;100431.03;2577827;55;20129;-73
2021/05/23 03:22:16;;;;;;;19.50;13.55;;;;;;;7.94;100.00;100438.47;2578730;55;20121;-73
2021/05/23 03:24:44;;;;;;;20.25;13.68;;;;;;;7.96;100.00;100438.38;2578682;55;20121;-73
2021/05/23 03:27:12;;;;;;;22.15;15.07;;;;;;;7.99;100.00;100436.38;2578665;55;20117;-73
2021/05/23 03:29:39;;;;;;;21.58;15.60;;;;;;;8.06;100.00;100434.13;2578572;55;20128;-73
2021/05/23 03:32:07;;;;;;;25.80;17.08;;;;;;;8.13;100.00;100438.06;2578734;55;20109;-73
2021/05/23 03:34:34;;;;;;;20.62;15.85;;;;;;;8.18;100.00;100438.59;2581231;55;20131;-73
2021/05/23 03:37:02;;;;;;;19.00;14.98;;;;;;;8.27;100.00;100434.44;2583818;55;20477;-73
2021/05/23 03:39:30;;;;;;;16.50;13.30;;;;;;;8.35;100.00;100444.53;2583816;55;20172;-73
2021/05/23 03:41:58;;;;;;;11.98;10.50;;;;;;;8.44;100.00;100438.56;2584024;55;20641;-73
2021/05/23 03:44:26;;;;;;;12.32;10.93;;;;;;;8.49;100.00;100432.94;2583807;55;20117;-73
2021/05/23 03:46:53;;;;;;;12.98;11.18;;;;;;;8.55;100.00;100426.34;2583867;55;20662;-73
2021/05/23 03:49:21;;;;;;;13.18;11.27;;;;;;;8.58;100.00;100418.16;2583753;55;20679;-73
2021/05/23 03:51:49;;;;;;;13.98;12.32;;;;;;;8.68;100.00;100427.16;2583845;55;20116;-73
2021/05/23 03:54:16;;;;;;;14.05;11.52;;;;;;;8.70;100.00;100419.09;2583955;55;20117;-73
2021/05/23 03:56:45;;;;;;;13.80;12.10;;;;;;;8.80;100.00;100433.41;2583915;55;20503;-73
2021/05/23 03:59:12;;;;;;;14.68;11.98;;;;;;;8.86;100.00;100438.28;2583815;55;20523;-74
2021/05/23 04:01:40;;;;;;;14.23;10.95;;;;;;;8.87;100.00;100431.16;2578708;55;20652;-73
2021/05/23 04:04:09;;;;;;;14.95;12.63;;;;;;;8.89;100.00;100429.22;2583692;55;20102;-74
2021/05/23 04:06:37;;;;;;;13.52;12.05;;;;;;;8.91;100.00;100422.84;2583772;55;20644;-73
2021/05/23 04:09:05;;;;;;;14.40;12.52;;;;;;;8.98;100.00;100433.06;2583861;55;20109;-73
2021/05/23 04:11:35;;;;;;;14.20;10.73;;;;;;;9.00;100.00;100431.97;2583733;55;20687;-73
2021/05/23 04:14:03;;;;;;;13.85;12.02;;;;;;;9.01;100.00;100427.50;2583749;55;20104;-73
2021/05/23 04:16:31;;;;;;;16.27;13.73;;;;;;;9.01;100.00;100436.31;2583808;55;20134;-73
2021/05/23 04:18:58;;;;;;;21.12;14.10;;;;;;;9.03;100.00;100421.09;2583736;55;20093;-73
2021/05/23 04:21:26;;;;;;;17.48;15.48;;;;;;;9.00;100.00;100426.63;2583784;55;20507;-73
2021/05/23 04:23:53;;;;;;;16.85;13.23;;;;;;;9.07;100.00;100436.84;2583787;55;20136;-73
2021/05/23 04:26:21;;;;;;;16.40;13.85;;;;;;;9.07;100.00;100439.50;2583623;55;20112;-74
2021/05/23 04:28:49;;;;;;;16.87;14.13;;;;;;;9.10;100.00;100440.13;2583643;55;20507;-74
2021/05/23 04:31:17;;;;;;;22.23;15.50;;;;;;;9.07;100.00;100439.50;2583737;55;20121;-73
2021/05/23 04:33:45;;;;;;;17.80;14.40;;;;;;;9.05;100.00;100439.59;2583620;55;20191;-73
2021/05/23 04:36:12;;;;;;;17.42;13.90;;;;;;;9.11;100.00;100438.31;2583301;55;20114;-73
2021/05/23 04:38:39;;;;;;;16.10;14.20;;;;;;;9.15;100.00;100435.31;2583854;55;20631;-73
2021/05/23 04:41:07;;;;;;;21.87;15.88;;;;;;;9.14;100.00;100446.09;2583902;55;20125;-73
2021/05/23 04:43:34;;;;;;;18.73;16.12;;;;;;;9.14;100.00;100435.44;2583567;55;20097;-74
2021/05/23 04:46:01;;;;;;;19.17;16.12;;;;;;;9.16;100.00;100428.19;2583747;55;20109;-74
2021/05/23 04:48:30;;;;;;;18.55;15.27;;;;;;;9.17;100.00;100425.41;2583695;55;20109;-74
2021/05/23 04:50:57;;;;;;;21.83;16.73;;;;;;;9.18;100.00;100410.28;2583563;55;20139;-74
2021/05/23 04:53:25;;;;;;;21.42;17.87;;;;;;;9.17;100.00;100400.59;2583725;55;20648;-74
2021/05/23 04:55:52;;;;;;;22.98;17.67;;;;;;;9.18;100.00;100403.16;2583556;55;20113;-75
2021/05/23 04:58:19;;;;;;;23.48;18.60;;;;;;;9.20;100.00;100416.31;2583912;55;20574;-74
2021/05/23 05:00:47;;;;;;;22.35;18.00;;;;;;;9.26;100.00;100415.03;2578631;55;20498;-74
2021/05/23 05:03:14;;;;;;;26.87;17.45;;;;;;;9.32;100.00;100410.13;2583629;55;20541;-74
2021/05/23 05:05:43;;;;;;;24.83;19.77;;;;;;;9.38;100.00;100411.47;2583499;55;20123;-74
2021/05/23 05:08:10;;;;;;;24.17;20.00;;;;;;;9.44;100.00;100407.50;2583367;55;20491;-74
2021/05/23 05:10:38;;;;;;;29.30;21.50;;;;;;;9.46;100.00;100400.22;2583410;55;20656;-75
2021/05/23 05:13:05;;;;;;;23.90;20.08;;;;;;;9.53;100.00;100397.94;2583379;55;20125;-74
2021/05/23 05:15:32;;;;;;;20.15;17.00;;;;;;;9.54;100.00;100408.50;2583391;55;20614;-74
2021/05/23 05:18:00;;;;;;;25.50;18.25;;;;;;;9.58;100.00;100406.44;2583646;55;20116;-73
2021/05/23 05:20:28;;;;;;;20.80;18.12;;;;;;;9.61;100.00;100388.38;2583768;55;20127;-74
2021/05/23 05:22:56;;;;;;;22.08;17.92;;;;;;;9.61;100.00;100383.06;2583641;55;20113;-74
2021/05/23 05:25:24;;;;;;;20.67;16.90;;;;;;;9.64;100.00;100386.47;2583460;55;20645;-73
2021/05/23 05:27:51;;;;;;;20.52;17.00;;;;;;;9.60;100.00;100392.03;2583468;55;20105;-73
2021/05/23 05:30:20;;;;;;;18.25;15.43;;;;;;;9.64;100.00;100394.47;2583679;55;20153;-74
2021/05/23 05:32:48;;;;;;;18.20;15.10;;;;;;;9.66;100.00;100396.03;2583550;55;20139;-74
2021/05/23 05:35:15;;;;;;;16.42;14.55;;;;;;;9.73;100.00;100417.75;2583721;55;20119;-74
2021/05/23 05:37:42;;;;;;;21.42;18.00;;;;;;;9.67;100.00;100399.56;2583505;55;20527;-74
2021/05/23 05:40:13;;;;;;;48.25;42.72;;;;;;;9.69;100.00;100397.63;2583596;55;20128;-75
2021/05/23 05:42:40;;;;;;;56.97;50.60;;;;;;;9.69;100.00;100401.16;2583391;55;20117;-75
2021/05/23 05:45:08;;;;;;;28.12;23.33;;;;;;;9.71;100.00;100399.22;2583534;55;20120;-76
2021/05/23 05:47:36;;;;;;;17.27;14.93;;;;;;;9.75;100.00;100392.66;2583354;55;20116;-74
2021/05/23 05:50:05;;;;;;;17.65;15.75;;;;;;;9.79;100.00;100393.28;2578549;55;20114;-73
2021/05/23 05:52:32;;;;;;;19.95;17.83;;;;;;;9.79;100.00;100381.78;2583329;55;20109;-75
2021/05/23 05:55:00;;;;;;;20.67;17.30;;;;;;;9.82;100.00;100385.06;2583423;55;20641;-75
2021/05/23 05:57:28;;;;;;;20.10;17.90;;;;;;;9.82;100.00;100390.41;2583474;55;20113;-74
2021/05/23 05:59:56;;;;;;;20.75;18.27;;;;;;;9.82;100.00;100395.72;2578321;55;20113;-75
2021/05/23 06:02:23;;;;;;;19.90;17.87;;;;;;;9.86;100.00;100394.50;2583326;55;20129;-73
2021/05/23 06:04:51;;;;;;;20.60;17.55;;;;;;;9.88;100.00;100394.41;2583361;55;20112;-73
2021/05/23 06:07:19;;;;;;;18.83;16.80;;;;;;;9.92;100.00;100392.31;2583329;55;20123;-73
2021/05/23 06:09:46;;;;;;;17.67;15.77;;;;;;;10.00;100.00;100404.09;2583487;55;20669;-75
2021/05/23 06:12:17;;;;;;;18.30;16.25;;;;;;;9.98;100.00;100411.38;2583367;55;20638;-73
2021/05/23 06:14:45;;;;;;;22.90;18.87;;;;;;;10.04;100.00;100396.72;2583137;55;20115;-74
2021/05/23 06:17:12;;;;;;;21.50;18.75;;;;;;;10.00;100.00;100372.13;2583100;55;20113;-73
2021/05/23 06:19:40;;;;;;;22.83;19.40;;;;;;;10.09;100.00;100359.88;2583034;55;20129;-74
2021/05/23 06:22:07;;;;;;;16.67;14.93;;;;;;;10.10;100.00;100342.91;2583246;55;20108;-74
2021/05/23 06:24:35;;;;;;;20.60;16.62;;;;;;;10.10;100.00;100355.41;2583319;55;20479;-73
2021/05/23 06:27:03;;;;;;;19.17;16.85;;;;;;;10.06;100.00;100349.47;2583283;55;20124;-73
2021/05/23 06:29:30;;;;;;;18.87;16.60;;;;;;;10.07;100.00;100348.50;2578158;55;20644;-75
2021/05/23 06:31:58;;;;;;;19.23;15.57;;;;;;;10.07;100.00;100366.28;2578105;55;20503;-75
2021/05/23 06:34:26;;;;;;;22.35;18.52;;;;;;;10.11;100.00;100363.25;2583254;55;20109;-73
2021/05/23 06:36:53;;;;;;;21.95;19.27;;;;;;;10.08;100.00;100368.00;2583129;55;20123;-73
2021/05/23 06:39:20;;;;;;;24.98;21.17;;;;;;;10.10;100.00;100374.91;2583186;55;20165;-73
2021/05/23 06:41:48;;;;;;;27.30;22.40;;;;;;;10.10;100.00;100363.41;2583417;55;20113;-74
2021/05/23 06:44:16;;;;;;;24.17;21.67;;;;;;;10.10;100.00;100366.06;2582965;55;20116;-75
2021/05/23 06:46:43;;;;;;;23.50;21.08;;;;;;;10.09;100.00;100362.53;2582786;55;20140;-73
2021/05/23 06:49:12;;;;;;;24.15;21.75;;;;;;;10.08;100.00;100363.50;2583321;55;20132;-74
2021/05/23 06:51:40;;;;;;;26.62;23.92;;;;;;;10.07;100.00;100343.16;2578073;55;20113;-73
2021/05/23 06:54:07;;;;;;;24.63;22.13;;;;;;;10.11;100.00;100336.59;2583232;55;20117;-73
2021/05/23 06:56:35;;;;;;;28.62;24.77;;;;;;;10.16;100.00;100339.75;2583257;55;20128;-74
2021/05/23 06:59:03;;;;;;;27.52;24.70;;;;;;;10.19;100.00;100330.69;2583316;55;20134;-73
2021/05/23 07:01:31;;;;;;;27.50;23.67;;;;;;;10.21;100.00;100331.41;2583901;55;20131;-73
2021/05/23 07:03:59;;;;;;;27.15;24.30;;;;;;;10.25;100.00;100321.34;2583923;55;20157;-72
2021/05/23 07:06:27;;;;;;;23.65;21.25;;;;;;;10.26;100.00;100315.88;2583909;55;20152;-73
2021/05/23 07:08:55;;;;;;;22.20;19.27;;;;;;;10.28;100.00;100311.28;2583972;55;20669;-74
2021/05/23 07:11:22;;;;;;;21.20;18.90;;;;;;;10.31;100.00;100310.16;2578826;55;20129;-74
2021/05/23 07:13:50;;;;;;;18.52;16.62;;;;;;;10.39;100.00;100313.06;2583952;55;20132;-72
2021/05/23 07:16:17;;;;;;;19.62;17.45;;;;;;;10.39;100.00;100299.72;2583881;55;20555;-72
2021/05/23 07:18:45;;;;;;;20.10;17.25;;;;;;;10.43;100.00;100306.56;2583893;55;20109;-72
2021/05/23 07:21:12;;;;;;;17.62;15.82;;;;;;;10.49;100.00;100293.69;2583866;55;20623;-72
2021/05/23 07:23:40;;;;;;;22.17;17.27;;;;;;;10.51;100.00;100297.06;2583743;55;20275;-74
2021/05/23 07:26:08;;;;;;;21.80;17.80;;;;;;;10.52;100.00;100290.75;2583681;55;20104;-73
2021/05/23 07:28:36;;;;;;;20.35;17.27;;;;;;;10.47;100.00;100280.47;2583727;55;20131;-74
2021/05/23 07:31:04;;;;;;;17.33;15.52;;;;;;;10.47;100.00;100285.78;2583619;55;20158;-72
2021/05/23 07:33:32;;;;;;;17.62;13.93;;;;;;;10.49;100.00;100289.22;2583755;55;20121;-74
2021/05/23 07:35:59;;;;;;;17.23;14.90;;;;;;;10.47;100.00;100282.31;2584069;55;20618;-74
2021/05/23 07:38:26;;;;;;;17.37;14.85;;;;;;;10.48;100.00;100284.00;2583849;55;20689;-72
2021/05/23 07:40:55;;;;;;;17.23;15.45;;;;;;;10.53;100.00;100289.81;2583913;55;20761;-74
2021/05/23 07:43:22;;;;;;;16.77;14.95;;;;;;;10.57;100.00;100284.09;2583762;55;20121;-74
2021/05/23 07:45:50;;;;;;;17.02;14.95;;;;;;;10.62;100.00;100289.06;2583952;55;20115;-72
2021/05/23 07:48:17;;;;;;;15.23;13.62;;;;;;;10.62;100.00;100290.88;2583956;55;20113;-72
2021/05/23 07:50:47;;;;;;;16.83;14.23;;;;;;;10.65;100.00;100288.78;2584162;55;20124;-72
2021/05/23 07:53:14;;;;;;;15.30;13.73;;;;;;;10.68;100.00;100277.03;2578584;55;20120;-73
2021/05/23 07:55:43;;;;;;;14.63;12.98;;;;;;;10.74;100.00;100267.66;2582158;55;20113;-74
2021/05/23 07:58:11;;;;;;;20.92;14.70;;;;;;;10.79;100.00;100257.44;2582847;55;20131;-74
2021/05/23 08:00:38;;;;;;;16.52;14.73;;;;;;;10.80;100.00;100246.66;2583676;55;20112;-74
2021/05/23 08:03:06;;;;;;;16.33;14.63;;;;;;;10.85;100.00;100254.28;2583847;55;20109;-74
2021/05/23 08:05:33;;;;;;;14.05;12.20;;;;;;;10.88;100.00;100253.19;2583651;55;20504;-73
2021/05/23 08:08:01;;;;;;;15.35;13.48;;;;;;;10.88;100.00;100243.31;2582498;55;20512;-74
2021/05/23 08:10:29;;;;;;;15.05;13.45;;;;;;;10.96;100.00;100230.19;2581124;55;20116;-73
2021/05/23 08:12:56;;;;;;;18.37;14.55;;;;;;;11.09;100.00;100223.81;2583811;55;20496;-73
2021/05/23 08:15:24;;;;;;;15.45;13.70;;;;;;;11.24;100.00;100217.16;2578510;55;20117;-73
2021/05/23 08:17:53;;;;;;;14.13;12.07;;;;;;;11.35;100.00;100212.72;2583626;55;20144;-74
2021/05/23 08:20:22;;;;;;;15.38;12.32;;;;;;;11.37;100.00;100205.41;2583791;55;20133;-71
2021/05/23 08:22:49;;;;;;;12.85;11.48;;;;;;;11.35;100.00;100192.19;2581300;55;20117;-71
2021/05/23 08:25:18;;;;;;;13.23;11.68;;;;;;;11.36;100.00;100187.69;2580953;55;20117;-70
2021/05/23 08:27:45;;;;;;;13.88;11.90;;;;;;;11.38;100.00;100191.94;2581249;55;20120;-71
2021/05/23 08:30:14;;;;;;;12.40;11.23;;;;;;;11.41;100.00;100186.31;2581269;55;20133;-70
2021/05/23 08:32:42;;;;;;;15.20;11.85;;;;;;;11.45;100.00;100192.22;2581381;55;20121;-72
2021/05/23 08:35:11;;;;;;;13.50;11.02;;;;;;;11.45;100.00;100197.56;2580951;55;20120;-72
2021/05/23 08:37:40;;;;;;;12.93;10.18;;;;;;;11.36;100.00;100193.03;2576064;55;20134;-72
2021/05/23 08:40:09;;;;;;;14.10;11.43;;;;;;;11.41;100.00;100190.78;2582600;55;20529;-72
2021/05/23 08:42:37;;;;;;;12.95;9.82;;;;;;;11.41;100.00;100185.44;2581930;55;20139;-72
2021/05/23 08:45:06;;;;;;;11.07;9.02;;;;;;;11.40;100.00;100170.41;2580954;55;20549;-72
2021/05/23 08:47:40;;;;;;;15.90;14.05;;;;;;;11.54;100.00;100169.19;2580749;55;20132;-72
2021/05/23 08:50:09;;;;;;;17.12;15.32;;;;;;;11.49;100.00;100164.25;2581037;55;20131;-72
2021/05/23 08:52:37;;;;;;;40.28;34.15;;;;;;;11.56;100.00;100175.25;2580941;55;20115;-72
2021/05/23 08:55:06;;;;;;;41.78;34.85;;;;;;;11.63;100.00;100178.25;2580765;55;20113;-72
2021/05/23 08:57:34;;;;;;;14.10;12.60;;;;;;;11.54;100.00;100159.37;2581225;55;20143;-70
2021/05/23 09:00:03;;;;;;;9.23;7.90;;;;;;;11.63;100.00;100178.25;2580675;55;20535;-72
2021/05/23 09:02:30;;;;;;;14.25;11.85;;;;;;;11.62;100.00;100195.22;2580275;55;20160;-71
2021/05/23 09:04:58;;;;;;;12.75;8.55;;;;;;;11.66;100.00;100199.34;2580973;55;20121;-71
2021/05/23 09:07:26;;;;;;;13.38;10.73;;;;;;;11.55;100.00;100190.44;2575967;55;20125;-71
2021/05/23 09:09:54;;;;;;;15.02;13.45;;;;;;;11.43;100.00;100177.31;2580968;55;20197;-69
2021/05/23 09:12:21;;;;;;;14.43;11.32;;;;;;;11.43;100.00;100175.50;2581045;55;20128;-71
2021/05/23 09:14:51;;;;;;;17.98;15.68;;;;;;;11.35;100.00;100175.31;2580891;55;20131;-73
2021/05/23 09:17:20;;;;;;;21.45;17.35;;;;;;;11.34;100.00;100171.78;2581138;55;20121;-71
2021/05/23 09:19:49;;;;;;;20.08;18.08;;;;;;;11.39;100.00;100164.25;2581023;55;20124;-72
2021/05/23 09:22:17;;;;;;;20.35;18.12;;;;;;;11.34;100.00;100157.59;2581261;55;20127;-71
2021/05/23 09:24:52;;;;;;;18.17;14.40;;;;;;;11.37;100.00;100149.31;2582517;55;20127;-72
2021/05/23 09:27:20;;;;;;;21.45;13.18;;;;;;;11.40;100.00;100157.06;2581079;55;20124;-71
2021/05/23 09:29:48;;;;;;;25.02;21.42;;;;;;;11.42;100.00;100152.41;2580909;55;20571;-70
2021/05/23 09:32:18;;;;;;;24.30;19.33;;;;;;;11.44;100.00;100144.28;2580968;55;20121;-70
2021/05/23 09:34:48;;;;;;;28.70;23.42;;;;;;;11.38;100.00;100141.19;2580615;55;20166;-70
2021/05/23 09:37:16;;;;;;;25.05;20.90;;;;;;;11.41;100.00;100134.69;2580889;55;20116;-70
2021/05/23 09:39:45;;;;;;;25.65;22.05;;;;;;;11.36;100.00;100131.59;2580870;55;20139;-70
2021/05/23 09:42:15;;;;;;;31.15;25.30;;;;;;;11.35;100.00;100121.91;2580888;55;20717;-70
2021/05/23 09:44:43;;;;;;;28.70;20.62;;;;;;;11.32;100.00;100116.81;2580812;55;20117;-71
2021/05/23 09:47:12;;;;;;;24.85;22.17;;;;;;;11.26;100.00;100124.41;2580819;55;20128;-71
2021/05/23 09:49:53;;;;;;;28.77;24.60;;;;;;;11.28;100.00;100121.59;2575802;55;20136;-71
2021/05/23 09:52:32;;;;;;;27.15;21.83;;;;;;;11.29;100.00;100139.31;2580800;55;20116;-70
2021/05/23 09:55:00;;;;;;;27.23;23.33;;;;;;;11.21;100.00;100131.97;2580188;55;20133;-72
2021/05/23 09:57:29;;;;;;;25.55;21.52;;;;;;;11.21;100.00;100137.28;2580807;55;20120;-71
2021/05/23 10:00:01;;;;;;;31.20;25.65;;;;;;;11.19;100.00;100114.41;2579902;55;20124;-70
2021/05/23 10:02:50;;;;;;;31.00;26.75;;;;;;;11.14;100.00;100109.47;2581098;55;20136;-71
2021/05/23 10:05:18;;;;;;;25.90;22.08;;;;;;;11.22;100.00;100114.97;2580845;55;20135;-71
2021/05/23 10:07:46;;;;;;;59.90;46.88;;;;;;;11.22;100.00;100109.62;2580668;55;20510;-70
2021/05/23 10:10:14;;;;;;;25.52;20.25;;;;;;;11.30;100.00;100098.28;2575500;55;20653;-71
2021/05/23 10:12:43;;;;;;;23.42;16.05;;;;;;;11.34;100.00;100093.50;2580720;55;20132;-71
2021/05/23 10:15:12;;;;;;;40.12;30.98;;;;;;;11.46;100.00;100097.75;2580601;55;20512;-71
2021/05/23 10:17:41;;;;;;;257.67;144.35;;;;;;;11.51;100.00;100100.84;2580723;55;20131;-71
2021/05/23 10:20:11;;;;;;;39.40;31.37;;;;;;;11.57;100.00;100109.31;2580508;55;20139;-71
2021/05/23 10:22:40;;;;;;;49.50;37.15;;;;;;;11.50;100.00;100083.12;2580207;55;20113;-72
2021/05/23 10:25:12;;;;;;;35.88;29.98;;;;;;;11.58;100.00;100089.62;2575296;55;20145;-72
2021/05/23 10:27:41;;;;;;;;;;;;;;;11.75;100.00;100086.28;2575699;55;20135;-73
2021/05/23 10:30:11;;;;;;;44.55;37.33;;;;;;;11.66;100.00;100081.78;2580497;55;19988;-73
2021/05/23 10:32:41;;;;;;;32.85;26.83;;;;;;;11.66;100.00;100065.75;2579845;55;20111;-73
2021/05/23 10:35:13;;;;;;;25.80;22.35;;;;;;;11.68;100.00;100064.63;2580594;55;20113;-73
2021/05/23 10:37:42;;;;;;;20.45;16.37;;;;;;;11.62;100.00;100072.31;2580869;55;20120;-72
2021/05/23 10:40:19;;;;;;;22.45;20.05;;;;;;;11.66;100.00;100065.75;2581057;55;20516;-73
2021/05/23 10:42:52;;;;;;;25.20;20.10;;;;;;;11.78;100.00;100059.28;2580773;55;20155;-72
2021/05/23 10:45:26;;;;;;;21.02;16.80;;;;;;;11.82;100.00;100049.16;2579140;55;20124;-71
2021/05/23 10:47:55;;;;;;;18.20;15.88;;;;;;;11.87;100.00;100038.88;2579463;55;20131;-72
2021/05/23 10:50:32;;;;;;;18.08;15.65;;;;;;;11.89;100.00;100026.25;2579612;55;20120;-72
2021/05/23 10:53:00;;;;;;;21.98;19.60;;;;;;;12.06;100.00;100021.16;2578827;55;20627;-74
2021/05/23 10:55:28;;;;;;;26.10;23.45;;;;;;;12.19;100.00;100020.88;2579937;55;20113;-73
2021/05/23 10:57:57;;;;;;;24.30;21.70;;;;;;;12.28;100.00;100013.84;2580078;55;20554;-71
2021/05/23 11:00:27;;;;;;;36.63;28.17;;;;;;;12.36;100.00;100025.50;2581351;55;20696;-72
2021/05/23 11:02:56;;;;;;;63.22;46.35;;;;;;;12.50;100.00;100021.53;2581786;55;20551;-73
2021/05/23 11:05:25;;;;;;;26.00;23.10;;;;;;;12.63;100.00;100021.22;2581197;55;20138;-73
2021/05/23 11:07:56;;;;;;;18.52;16.17;;;;;;;12.68;100.00;100017.25;2580627;55;20123;-73
2021/05/23 11:10:27;;;;;;;19.48;17.40;;;;;;;12.76;100.00;100012.84;2576019;55;20629;-73
2021/05/23 11:12:57;;;;;;;17.02;13.65;;;;;;;12.86;100.00;100010.13;2580500;55;20125;-74
2021/05/23 11:15:27;;;;;;;21.02;18.75;;;;;;;13.02;100.00;100008.62;2580975;55;20119;-73